Wiederkehr Village, Arkansas
Current Conditions -  °F | °C
As of 9:53 AM on Wednesday 22 Oct 2014 (Local Time) from KFSM Reporting Station
Few Clouds Few Clouds  
Wind Chill: 61°   Ceiling: Unl
Heat Index: 61°   Visibility: 10mi
Dew Point: 52°   Wind: 10mph
Humidity: 72%   Direction: 70°ENE
Pressure: 30.23"   Gusts: NA
Location:  35.3734°N, 93.8592°W
Report Text: KFSM 221453Z 07009KT 10SM FEW060 16/11 A3023 RMK AO2 SLP232 T01610111 51024
Loading
Personal Weather Stations






























Interactive Weather Map
Tropical Storm Tracking
New forecast layout! Learn more

10-Day Weather Forecast

Advertisements
Track Severe Weather on mobile